Time;durP1;ratioP1;P1;durP2;ratioP2;P2;SDS_P1;SDS_P2;PMS_P1;PMS_P2;Temp;Humidity;BMP_temperature;BMP_pressure;BME280_temperature;BME280_humidity;BME280_pressure;Samples;Min_cycle;Max_cycle;Signal;HPM_P1;HPM_P2
2022/11/29 00:01:23;;;;;;;103.42;52.23;;;;;;;-3.19;73.31;97599.22;1567232;89;26571;-72
2022/11/29 00:03:50;;;;;;;122.40;62.98;;;;;;;-3.24;73.33;97589.97;1567441;89;25854;-72
2022/11/29 00:06:20;;;;;;;156.80;77.27;;;;;;;-3.31;73.47;97595.75;1567109;89;26877;-72
2022/11/29 00:08:48;;;;;;;161.28;76.70;;;;;;;-3.38;73.47;97590.58;1567309;89;25839;-75
2022/11/29 00:14:11;;;;;;;124.02;62.20;;;;;;;-3.41;73.54;97594.80;1678497;84;26070;-74
2022/11/29 00:19:07;;;;;;;133.90;62.88;;;;;;;-3.42;73.61;97591.80;1625367;87;27591;-72
2022/11/29 00:21:34;;;;;;;128.53;59.20;;;;;;;-3.43;73.65;97587.48;1686385;84;25884;-72
2022/11/29 00:24:01;;;;;;;132.65;66.02;;;;;;;-3.41;73.64;97587.36;1700302;84;25793;-76
2022/11/29 00:26:28;;;;;;;128.97;62.48;;;;;;;-3.41;73.62;97583.41;1677865;84;25791;-72
2022/11/29 00:28:54;;;;;;;141.70;73.95;;;;;;;-3.41;73.65;97589.52;1681255;84;25819;-72
2022/11/29 00:31:31;;;;;;;130.87;69.95;;;;;;;-3.42;73.63;97577.28;1700062;84;27444;-75
2022/11/29 00:34:01;;;;;;;144.35;72.72;;;;;;;-3.41;73.61;97580.77;1698658;84;25804;-75
2022/11/29 00:36:28;;;;;;;133.30;66.35;;;;;;;-3.42;73.67;97572.00;1676755;84;25854;-75
2022/11/29 00:38:55;;;;;;;124.38;61.28;;;;;;;-3.42;73.68;97577.77;1700364;84;25848;-72
2022/11/29 00:41:21;;;;;;;121.17;55.85;;;;;;;-3.45;73.72;97573.56;1700337;84;25747;-72
2022/11/29 00:43:49;;;;;;;113.37;54.42;;;;;;;-3.43;73.74;97576.92;1700355;84;27461;-74
2022/11/29 00:46:15;;;;;;;106.97;51.65;;;;;;;-3.43;73.76;97577.40;1699845;84;26040;-72
2022/11/29 00:48:42;;;;;;;100.80;51.77;;;;;;;-3.45;73.77;97574.04;1700120;84;25320;-72
2022/11/29 00:51:09;;;;;;;94.07;46.23;;;;;;;-3.47;73.77;97575.47;1700378;84;26418;-72
2022/11/29 00:53:36;;;;;;;89.67;44.05;;;;;;;-3.46;73.81;97572.36;1700278;84;25476;-76
2022/11/29 00:56:05;;;;;;;83.72;44.03;;;;;;;-3.45;73.78;97569.59;1700274;84;28237;-72
2022/11/29 00:58:32;;;;;;;83.00;41.25;;;;;;;-3.47;73.67;97570.67;1700038;84;25793;-76
2022/11/29 01:00:59;;;;;;;74.12;38.78;;;;;;;-3.48;73.70;97564.55;1694231;84;25900;-72
2022/11/29 01:03:25;;;;;;;70.62;38.28;;;;;;;-3.48;73.64;97559.75;1700317;84;26532;-73
2022/11/29 01:05:52;;;;;;;72.80;37.28;;;;;;;-3.49;73.60;97561.55;1700106;84;25852;-72
2022/11/29 01:08:19;;;;;;;75.47;39.85;;;;;;;-3.53;73.61;97560.14;1700228;84;27424;-72
2022/11/29 01:10:45;;;;;;;73.47;39.30;;;;;;;-3.55;73.62;97555.93;1700270;84;25765;-73
2022/11/29 01:13:13;;;;;;;76.35;38.73;;;;;;;-3.56;73.60;97553.77;1674694;84;25780;-72
2022/11/29 01:15:41;;;;;;;72.87;40.33;;;;;;;-3.56;73.66;97557.73;1722554;79;25935;-74
2022/11/29 01:18:07;;;;;;;81.45;39.88;;;;;;;-3.55;73.67;97557.25;1774300;78;25735;-72
2022/11/29 01:20:34;;;;;;;76.95;38.48;;;;;;;-3.57;73.66;97554.73;1802493;79;27411;-71
2022/11/29 01:23:00;;;;;;;81.00;37.35;;;;;;;-3.57;73.71;97563.97;1779895;79;25766;-74
2022/11/29 01:25:28;;;;;;;83.90;37.25;;;;;;;-3.62;73.67;97556.06;1802437;79;25456;-72
2022/11/29 01:27:54;;;;;;;78.97;35.50;;;;;;;-3.65;73.74;97549.22;1776222;78;25746;-73
2022/11/29 01:30:21;;;;;;;79.05;38.38;;;;;;;-3.65;73.73;97553.18;1800453;76;25389;-72
2022/11/29 01:32:48;;;;;;;70.08;34.25;;;;;;;-3.66;73.71;97550.18;1800695;77;27324;-75
2022/11/29 01:35:15;;;;;;;71.80;36.93;;;;;;;-3.67;73.69;97544.55;1841750;76;25645;-72
2022/11/29 01:37:41;;;;;;;66.77;32.58;;;;;;;-3.67;73.67;97545.86;1825393;77;25747;-72
2022/11/29 01:40:08;;;;;;;65.83;33.70;;;;;;;-3.69;73.72;97547.30;1800555;77;25705;-72
2022/11/29 01:42:35;;;;;;;58.85;31.93;;;;;;;-3.69;73.76;97540.70;1819155;77;25670;-75
2022/11/29 01:45:25;;;;;;;55.15;29.92;;;;;;;-3.67;73.73;97540.58;1815094;77;28108;-72
2022/11/29 01:47:55;;;;;;;55.65;29.92;;;;;;;-3.68;73.73;97533.63;1820999;77;25645;-71
2022/11/29 01:50:22;;;;;;;57.15;29.57;;;;;;;-3.70;73.80;97538.17;1843416;76;25744;-72
2022/11/29 01:52:49;;;;;;;60.35;29.98;;;;;;;-3.70;73.85;97537.70;1800796;77;25721;-70
2022/11/29 01:55:15;;;;;;;54.10;29.35;;;;;;;-3.70;73.83;97534.22;1800563;76;25901;-72
2022/11/29 01:57:43;;;;;;;54.73;29.55;;;;;;;-3.70;73.84;97538.17;1800328;76;27589;-72
2022/11/29 02:00:15;;;;;;;57.90;29.35;;;;;;;-3.70;73.82;97537.70;1805378;78;26009;-74
2022/11/29 02:02:47;;;;;;;54.25;28.30;;;;;;;-3.73;73.71;97530.50;1773731;79;25727;-74
2022/11/29 02:05:16;;;;;;;;;;;;;;;-3.79;73.58;97534.95;1737322;80;26334;-72
2022/11/29 02:07:46;;;;;;;45.70;27.10;;;;;;;-3.85;73.67;97539.36;1702953;82;25505;-72
2022/11/29 02:10:14;;;;;;;47.53;27.20;;;;;;;-3.89;73.79;97543.22;1753728;80;27499;-73
2022/11/29 02:13:06;;;;;;;47.62;25.17;;;;;;;-3.91;73.81;97535.42;1753550;80;25824;-73
2022/11/29 02:15:44;;;;;;;50.08;26.20;;;;;;;-3.91;73.74;97541.17;1753849;80;25963;-76
2022/11/29 02:18:15;;;;;;;46.88;24.90;;;;;;;-3.93;73.75;97541.77;1753774;80;25684;-74
2022/11/29 02:21:02;;;;;;;47.58;25.20;;;;;;;-3.96;73.82;97535.40;1753776;80;25727;-73
2022/11/29 02:23:40;;;;;;;46.23;24.02;;;;;;;-3.94;73.87;97536.97;1753851;80;27533;-71
2022/11/29 02:26:37;;;;;;;51.58;26.35;;;;;;;-3.94;73.83;97540.08;1746823;80;25738;-74
2022/11/29 02:29:45;;;;;;;45.90;23.77;;;;;;;-3.98;73.80;97542.11;1749958;80;25830;-72
2022/11/29 02:33:01;;;;;;;46.05;25.25;;;;;;;-4.01;73.76;97547.16;1753654;80;25841;-73
2022/11/29 02:35:48;;;;;;;51.15;26.27;;;;;;;-4.07;73.62;97541.03;1753745;80;25589;-72
2022/11/29 02:38:44;;;;;;;43.55;24.65;;;;;;;-4.11;73.67;97543.55;1750474;80;28143;-71
2022/11/29 02:41:36;;;;;;;38.42;21.25;;;;;;;-4.15;73.64;97547.37;1731982;81;26610;-72
2022/11/29 02:44:23;;;;;;;29.00;16.33;;;;;;;-4.17;73.67;97549.28;1729352;81;25767;-75
2022/11/29 02:47:29;;;;;;;40.78;23.45;;;;;;;-4.20;73.77;97546.87;1739578;81;25722;-72
2022/11/29 02:50:36;;;;;;;45.05;23.55;;;;;;;-4.23;73.66;97556.35;1732651;81;26874;-74
2022/11/29 02:53:19;;;;;;;40.65;23.77;;;;;;;-4.29;73.72;97547.58;1753722;81;27409;-75
2022/11/29 02:55:54;;;;;;;48.08;25.65;;;;;;;-4.35;73.81;97548.05;1750920;81;25758;-73
2022/11/29 02:58:53;;;;;;;41.23;25.20;;;;;;;-4.34;73.83;97548.39;1726838;81;25857;-75
2022/11/29 03:01:59;;;;;;;47.08;24.10;;;;;;;-4.33;73.79;97557.13;1761530;79;26736;-73
2022/11/29 03:04:52;;;;;;;45.40;24.85;;;;;;;-4.34;73.83;97562.88;1777670;79;25722;-76
2022/11/29 03:07:26;;;;;;;44.80;23.85;;;;;;;-4.35;73.72;97559.91;1774575;79;27436;-73
2022/11/29 03:10:31;;;;;;;37.85;21.70;;;;;;;-4.38;73.74;97560.98;1770202;79;26299;-73
2022/11/29 03:12:59;;;;;;;36.75;21.80;;;;;;;-4.39;73.82;97559.77;1701076;82;25902;-74
2022/11/29 03:15:42;;;;;;;38.28;21.80;;;;;;;-4.38;73.92;97564.09;1721873;82;26339;-74
2022/11/29 03:18:38;;;;;;;39.85;21.33;;;;;;;-4.41;73.96;97569.58;1698255;82;25520;-73
2022/11/29 03:21:45;;;;;;;44.77;26.00;;;;;;;-4.44;73.91;97568.48;1634745;85;27468;-76
2022/11/29 03:24:16;;;;;;;40.35;25.15;;;;;;;-4.51;73.98;97565.95;1656324;85;25756;-73
2022/11/29 03:26:53;;;;;;;47.43;25.17;;;;;;;-4.49;74.16;97568.01;1654023;85;25847;-71
2022/11/29 03:29:34;;;;;;;42.67;23.70;;;;;;;-4.52;74.12;97569.55;1656197;85;25861;-73
2022/11/29 03:32:29;;;;;;;40.88;25.57;;;;;;;-4.51;74.22;97575.18;1656357;85;25886;-72
2022/11/29 03:35:07;;;;;;;43.95;22.75;;;;;;;-4.56;74.20;97572.03;1593396;87;27624;-72
2022/11/29 03:37:54;;;;;;;40.05;23.32;;;;;;;-4.57;74.37;97569.03;1590031;87;26086;-73
2022/11/29 03:40:26;;;;;;;44.45;26.20;;;;;;;-4.55;74.45;97567.13;1593403;87;25855;-73
2022/11/29 03:43:04;;;;;;;44.25;25.35;;;;;;;-4.52;74.49;97566.91;1542031;92;26018;-72
2022/11/29 03:45:44;;;;;;;36.83;23.60;;;;;;;-4.49;74.58;97569.33;1539729;92;25502;-73
2022/11/29 03:48:37;;;;;;;40.20;23.95;;;;;;;-4.54;74.62;97571.45;1542601;92;27368;-73
2022/11/29 03:51:13;;;;;;;39.00;25.00;;;;;;;-4.56;74.73;97578.14;1572477;91;26004;-71
2022/11/29 03:54:02;;;;;;;38.17;24.87;;;;;;;-4.53;74.83;97577.08;1572374;91;25820;-75
2022/11/29 03:56:34;;;;;;;40.52;24.15;;;;;;;-4.51;74.80;97578.66;1570274;91;26374;-72
2022/11/29 03:59:13;;;;;;;36.23;23.55;;;;;;;-4.49;74.77;97583.81;1572923;90;25776;-71
2022/11/29 04:02:10;;;;;;;38.78;23.75;;;;;;;-4.47;74.78;97584.55;1576685;90;27451;-72
2022/11/29 04:04:59;;;;;;;39.03;23.55;;;;;;;-4.46;74.71;97579.13;1579642;90;25758;-73
2022/11/29 04:07:49;;;;;;;40.17;24.90;;;;;;;-4.44;74.67;97586.93;1577107;90;25905;-73
2022/11/29 04:10:41;;;;;;;35.33;22.75;;;;;;;-4.42;74.68;97594.25;1587582;88;26367;-73
2022/11/29 04:13:39;;;;;;;36.80;22.40;;;;;;;-4.42;74.57;97596.41;1614935;88;25548;-72
2022/11/29 04:16:23;;;;;;;32.58;20.68;;;;;;;-4.47;74.44;97594.58;1562588;91;27484;-73
2022/11/29 04:19:31;;;;;;;35.70;21.48;;;;;;;-4.54;74.39;97593.84;1582153;89;25517;-76
2022/11/29 04:22:25;;;;;;;35.95;22.10;;;;;;;-4.53;74.49;97600.31;1582850;89;26485;-77
2022/11/29 04:25:08;;;;;;;42.80;23.98;;;;;;;-4.54;74.46;97601.74;1579677;89;26569;-73
2022/11/29 04:27:58;;;;;;;44.10;26.00;;;;;;;-4.55;74.45;97606.64;1580537;89;25931;-73
2022/11/29 04:30:26;;;;;;;47.13;25.80;;;;;;;-4.56;74.47;97606.28;1582771;89;27403;-72
2022/11/29 04:33:26;;;;;;;46.50;28.25;;;;;;;-4.55;74.52;97609.28;1582819;89;25844;-72
2022/11/29 04:36:15;;;;;;;62.38;36.45;;;;;;;-4.56;74.60;97608.91;1581058;89;25859;-72
2022/11/29 04:39:02;;;;;;;89.90;50.83;;;;;;;-4.55;74.72;97614.08;1572562;89;25853;-73
2022/11/29 04:41:51;;;;;;;94.77;51.80;;;;;;;-4.54;74.71;97616.23;1581505;89;25628;-74
2022/11/29 04:44:45;;;;;;;98.72;62.65;;;;;;;-4.56;74.73;97612.39;1627998;85;27412;-73
2022/11/29 04:47:39;;;;;;;83.35;49.08;;;;;;;-4.55;74.79;97618.03;1644959;85;25720;-70
2022/11/29 04:50:29;;;;;;;74.97;46.75;;;;;;;-4.52;74.81;97618.28;1652890;85;25557;-75
2022/11/29 04:53:29;;;;;;;79.55;46.98;;;;;;;-4.52;74.80;97624.39;1652332;85;43754;-72
2022/11/29 04:56:13;;;;;;;74.82;46.55;;;;;;;-4.50;74.87;97620.34;1675836;84;25892;-72
2022/11/29 04:59:00;;;;;;;73.30;45.35;;;;;;;-4.50;74.92;97621.17;1672688;83;27414;-73
2022/11/29 05:01:44;;;;;;;68.20;43.73;;;;;;;-4.48;74.90;97627.66;1694231;84;25312;-73
2022/11/29 05:04:37;;;;;;;70.12;41.37;;;;;;;-4.44;74.95;97629.09;1694364;84;25757;-71
2022/11/29 05:07:33;;;;;;;65.00;37.08;;;;;;;-4.43;74.88;97631.61;1690417;84;25773;-76
2022/11/29 05:10:36;;;;;;;61.60;36.08;;;;;;;-4.42;74.85;97636.41;1694876;84;25680;-72
2022/11/29 05:13:10;;;;;;;58.08;34.90;;;;;;;-4.45;74.73;97632.20;1670553;84;27040;-74
2022/11/29 05:16:00;;;;;;;69.75;41.65;;;;;;;-4.45;74.73;97636.16;1660237;86;25897;-72
2022/11/29 05:18:44;;;;;;;66.72;36.48;;;;;;;-4.45;74.68;97634.84;1660370;86;25797;-72
2022/11/29 05:21:34;;;;;;;64.92;37.48;;;;;;;-4.49;74.65;97637.83;1607954;89;26672;-76
2022/11/29 05:24:53;;;;;;;72.25;39.58;;;;;;;-4.54;74.59;97638.16;1560169;91;25919;-72
2022/11/29 05:27:46;;;;;;;82.97;41.77;;;;;;;-4.54;74.68;97645.22;1527734;93;27369;-72
2022/11/29 05:30:19;;;;;;;87.67;46.55;;;;;;;-4.54;74.66;97654.44;1576070;91;25795;-73
2022/11/29 05:33:16;;;;;;;100.97;53.50;;;;;;;-4.58;74.64;97651.17;1576215;91;26395;-72
2022/11/29 05:35:53;;;;;;;97.62;50.63;;;;;;;-4.58;74.63;97650.33;1540182;92;25697;-72
2022/11/29 05:38:25;;;;;;;103.67;52.38;;;;;;;-4.63;74.52;97653.32;1561621;91;25781;-73
2022/11/29 05:41:17;;;;;;;101.45;53.58;;;;;;;-4.68;74.62;97651.95;1566952;89;27494;-73
2022/11/29 05:43:55;;;;;;;92.95;50.70;;;;;;;-4.68;74.71;97662.49;1584162;89;25920;-76
2022/11/29 05:47:00;;;;;;;110.03;52.70;;;;;;;-4.69;74.58;97656.86;1586968;89;25783;-72
2022/11/29 05:49:44;;;;;;;103.58;52.85;;;;;;;-4.73;74.52;97659.73;1625321;84;26540;-72
2022/11/29 05:52:46;;;;;;;103.47;51.60;;;;;;;-4.77;74.51;97662.22;1664092;84;25787;-74
2022/11/29 05:55:33;;;;;;;101.65;55.48;;;;;;;-4.77;74.50;97664.84;1666277;84;26834;-75
2022/11/29 05:58:22;;;;;;;106.52;57.90;;;;;;;-4.82;74.49;97672.22;1686761;80;25713;-76
2022/11/29 06:00:57;;;;;;;124.12;66.70;;;;;;;-4.83;74.56;97674.48;1789340;78;25456;-72
2022/11/29 06:03:44;;;;;;;129.85;66.12;;;;;;;-4.85;74.62;97677.73;1801397;78;26460;-77
2022/11/29 06:06:38;;;;;;;142.62;73.60;;;;;;;-4.86;74.71;97681.79;1728340;82;25738;-74
2022/11/29 06:09:29;;;;;;;134.93;71.40;;;;;;;-4.83;74.75;97682.89;1737837;82;27623;-73
2022/11/29 06:12:08;;;;;;;123.37;65.27;;;;;;;-4.81;74.81;97689.71;1694796;83;25471;-75
2022/11/29 06:15:02;;;;;;;118.75;63.63;;;;;;;-4.85;74.74;97685.64;1687003;83;25831;-73
2022/11/29 06:18:05;;;;;;;103.42;53.48;;;;;;;-4.87;74.79;97686.22;1694761;83;25693;-71
2022/11/29 06:21:00;;;;;;;90.53;48.45;;;;;;;-4.85;74.84;97692.22;1693819;83;25463;-72
2022/11/29 06:23:56;;;;;;;99.05;52.53;;;;;;;-4.88;74.86;97696.38;1694689;83;27468;-73
2022/11/29 06:26:48;;;;;;;99.20;54.20;;;;;;;-4.85;74.93;97692.22;1694659;83;25787;-72
2022/11/29 06:29:53;;;;;;;111.80;59.50;;;;;;;-4.83;74.88;97695.56;1689108;83;25345;-71
2022/11/29 06:33:00;;;;;;;125.35;61.75;;;;;;;-4.82;74.89;97701.67;1694997;83;25773;-73
2022/11/29 06:35:42;;;;;;;117.62;60.00;;;;;;;-4.80;74.96;97711.15;1628675;86;25782;-71
2022/11/29 06:38:28;;;;;;;107.50;55.38;;;;;;;-4.78;74.97;97708.41;1628796;86;27395;-73
2022/11/29 06:40:58;;;;;;;106.60;54.25;;;;;;;-4.77;74.96;97708.30;1624176;86;25569;-72
2022/11/29 06:43:25;;;;;;;98.90;52.55;;;;;;;-4.75;75.03;97704.25;1597717;89;25822;-72
2022/11/29 06:46:00;;;;;;;100.53;52.27;;;;;;;-4.71;75.08;97710.48;1598551;89;26344;-72
2022/11/29 06:48:34;;;;;;;112.47;58.33;;;;;;;-4.66;75.08;97708.85;1606295;87;25439;-72
2022/11/29 06:51:40;;;;;;;118.93;61.37;;;;;;;-4.61;75.10;97716.44;1637284;85;27463;-72
2022/11/29 06:54:39;;;;;;;138.37;67.75;;;;;;;-4.58;75.17;97714.87;1652597;86;25874;-72
2022/11/29 06:57:23;;;;;;;152.65;71.85;;;;;;;-4.54;75.17;97712.39;1652663;86;25909;-71
2022/11/29 07:00:26;;;;;;;154.90;77.22;;;;;;;-4.50;75.21;97708.59;1651142;86;25969;-73
2022/11/29 07:03:27;;;;;;;167.90;85.90;;;;;;;-4.46;75.30;97716.16;1683731;83;26077;-74
2022/11/29 07:05:54;;;;;;;164.30;81.55;;;;;;;-4.40;75.35;97718.36;1724571;83;27419;-72
2022/11/29 07:08:24;;;;;;;150.45;73.47;;;;;;;-4.35;75.42;97719.35;1724253;83;26336;-71
2022/11/29 07:10:54;;;;;;;138.97;69.85;;;;;;;-4.31;75.45;97718.63;1724422;83;25742;-72
2022/11/29 07:13:22;;;;;;;131.40;66.12;;;;;;;-4.27;75.45;97720.10;1724266;83;25869;-75
2022/11/29 07:16:27;;;;;;;139.62;68.60;;;;;;;-4.23;75.46;97722.41;1724385;83;25856;-74
2022/11/29 07:19:31;;;;;;;154.25;84.83;;;;;;;-4.18;75.49;97718.95;1724300;83;27405;-71
2022/11/29 07:22:06;;;;;;;195.45;105.03;;;;;;;-4.14;75.54;97721.73;1733908;80;25881;-73
2022/11/29 07:24:53;;;;;;;196.35;104.20;;;;;;;-4.07;75.63;97727.38;1788090;80;25704;-72
2022/11/29 07:27:27;;;;;;;177.90;93.80;;;;;;;-4.02;75.64;97727.42;1783776;79;25784;-72
2022/11/29 07:30:18;;;;;;;161.45;86.42;;;;;;;-3.97;75.74;97720.94;1644114;87;25958;-72
2022/11/29 07:32:58;;;;;;;144.85;73.45;;;;;;;-3.92;75.80;97720.14;1689887;84;28279;-72
2022/11/29 07:35:46;;;;;;;146.70;78.37;;;;;;;-3.86;75.84;97724.94;1686799;84;25849;-75
2022/11/29 07:38:41;;;;;;;140.55;78.90;;;;;;;-3.80;75.93;97723.18;1645349;86;26794;-74
2022/11/29 07:41:16;;;;;;;159.30;84.37;;;;;;;-3.74;76.05;97722.70;1650478;86;26334;-74
2022/11/29 07:43:50;;;;;;;150.00;80.70;;;;;;;-3.68;76.12;97730.17;1562671;91;25853;-74
2022/11/29 07:46:17;;;;;;;179.65;90.45;;;;;;;-3.64;76.29;97731.16;1560351;91;27405;-72
2022/11/29 07:48:44;;;;;;;142.93;71.17;;;;;;;-3.61;76.31;97731.38;1562508;90;25901;-72
2022/11/29 07:51:11;;;;;;;156.30;77.82;;;;;;;-3.53;76.42;97729.02;1562763;91;25821;-72
2022/11/29 07:53:42;;;;;;;165.73;84.42;;;;;;;-3.45;76.53;97733.23;1575456;89;25716;-72
2022/11/29 07:56:11;;;;;;;174.18;88.55;;;;;;;-3.35;76.57;97733.37;1587662;88;25399;-70
2022/11/29 07:58:38;;;;;;;162.27;81.57;;;;;;;-3.26;76.63;97736.14;1587567;88;28221;-75
2022/11/29 08:01:04;;;;;;;136.85;72.20;;;;;;;-3.16;76.65;97741.58;1593353;88;25544;-73
2022/11/29 08:03:32;;;;;;;114.05;62.83;;;;;;;-3.08;76.72;97738.33;1602210;88;25898;-75
2022/11/29 08:05:59;;;;;;;123.00;62.35;;;;;;;-3.00;76.72;97745.17;1601939;88;25897;-72
2022/11/29 08:08:26;;;;;;;108.55;57.40;;;;;;;-2.90;76.86;97746.16;1602194;88;25812;-72
2022/11/29 08:10:52;;;;;;;101.53;53.98;;;;;;;-2.80;76.89;97742.31;1602077;88;27383;-72
2022/11/29 08:13:20;;;;;;;101.12;49.80;;;;;;;-2.69;77.01;97747.59;1602073;88;25984;-73
2022/11/29 08:15:48;;;;;;;87.00;45.98;;;;;;;-2.58;77.11;97745.78;1601948;88;25753;-72
2022/11/29 08:18:15;;;;;;;98.30;47.27;;;;;;;-2.44;77.15;97749.14;1602064;88;26655;-72
2022/11/29 08:20:42;;;;;;;98.07;46.85;;;;;;;-2.32;77.35;97742.39;1601917;88;25890;-73
2022/11/29 08:23:12;;;;;;;84.67;42.88;;;;;;;-2.19;77.41;97739.59;1601923;88;27405;-72
2022/11/29 08:25:39;;;;;;;93.72;46.00;;;;;;;-2.07;77.46;97737.28;1603610;85;25738;-73
2022/11/29 08:28:06;;;;;;;70.70;40.17;;;;;;;-1.94;77.58;97739.28;1672012;85;25822;-73
2022/11/29 08:30:32;;;;;;;76.87;42.03;;;;;;;-1.81;77.63;97737.28;1672372;84;26562;-75
2022/11/29 08:32:59;;;;;;;77.15;38.95;;;;;;;-1.67;77.65;97736.63;1672396;85;25880;-75
2022/11/29 08:35:26;;;;;;;57.62;31.20;;;;;;;-1.53;77.72;97736.31;1669739;84;27381;-72
2022/11/29 08:37:54;;;;;;;55.20;29.27;;;;;;;-1.39;77.71;97738.66;1666069;85;25712;-74
2022/11/29 08:40:20;;;;;;;31.02;18.62;;;;;;;-1.24;77.76;97740.02;1721319;79;26102;-72
2022/11/29 08:42:47;;;;;;;28.77;17.50;;;;;;;-1.10;77.75;97744.99;1793594;78;26503;-73
2022/11/29 08:45:13;;;;;;;25.60;15.03;;;;;;;-0.93;77.79;97739.55;1794084;79;25728;-74
2022/11/29 08:47:41;;;;;;;29.02;16.85;;;;;;;-0.70;77.91;97742.87;1793422;79;27439;-73
2022/11/29 08:50:15;;;;;;;31.77;16.75;;;;;;;-0.43;77.93;97736.97;1766071;79;25650;-72
2022/11/29 08:55:36;;;;;;;28.90;16.48;;;;;;;0.12;77.75;97726.25;1730927;82;25710;-73
2022/11/29 08:58:07;;;;;;;31.48;19.25;;;;;;;0.45;77.46;97733.48;1746310;82;25706;-71
2022/11/29 09:00:34;;;;;;;33.85;19.65;;;;;;;0.67;77.22;97732.69;1748693;80;26940;-72
2022/11/29 09:05:32;;;;;;;37.75;19.07;;;;;;;1.12;76.87;97732.52;1724498;83;25821;-71
2022/11/29 09:07:59;;;;;;;29.45;18.50;;;;;;;1.31;76.66;97731.98;1724142;83;25738;-73
2022/11/29 09:10:25;;;;;;;33.55;19.82;;;;;;;1.52;76.63;97721.10;1700062;83;25483;-71
2022/11/29 09:12:52;;;;;;;32.70;19.35;;;;;;;1.74;76.42;97717.20;1724284;83;26802;-72
2022/11/29 09:15:19;;;;;;;29.27;19.35;;;;;;;2.00;76.34;97722.66;1700253;83;25553;-72
2022/11/29 09:17:46;;;;;;;29.27;17.65;;;;;;;2.26;76.21;97720.94;1724600;83;25798;-74
2022/11/29 09:20:13;;;;;;;26.65;16.60;;;;;;;2.47;75.87;97720.13;1724651;83;25813;-71
2022/11/29 09:22:39;;;;;;;25.80;17.15;;;;;;;2.69;75.47;97720.63;1724761;83;25765;-70
2022/11/29 09:25:06;;;;;;;26.77;16.27;;;;;;;2.87;75.47;97721.45;1724731;83;27447;-72
2022/11/29 09:27:33;;;;;;;25.45;14.95;;;;;;;3.05;75.16;97722.23;1724794;83;25779;-72
2022/11/29 09:30:01;;;;;;;23.50;13.60;;;;;;;3.24;74.71;97728.71;1724897;83;25897;-74
2022/11/29 09:32:28;;;;;;;24.55;15.50;;;;;;;3.40;74.29;97723.10;1724692;83;25879;-72
2022/11/29 09:34:55;;;;;;;26.30;15.95;;;;;;;3.58;74.19;97715.88;1724840;83;25801;-72
2022/11/29 09:37:21;;;;;;;29.70;16.37;;;;;;;3.80;74.07;97713.12;1703593;83;28098;-71
2022/11/29 09:39:48;;;;;;;24.82;15.85;;;;;;;4.04;73.81;97715.87;1724562;83;25797;-72
2022/11/29 09:42:43;;;;;;;34.05;17.98;;;;;;;4.28;73.59;97709.73;1733509;80;25274;-71
2022/11/29 09:45:15;;;;;;;28.52;17.27;;;;;;;4.55;73.15;97706.77;1770598;80;25821;-74
2022/11/29 09:48:16;;;;;;;24.80;16.45;;;;;;;4.88;72.48;97712.95;1756498;81;25967;-72
2022/11/29 09:50:51;;;;;;;22.52;14.43;;;;;;;5.10;72.34;97707.90;1756250;81;27426;-71
2022/11/29 09:53:24;;;;;;;23.70;15.60;;;;;;;5.35;72.07;97713.54;1675940;84;25797;-73
2022/11/29 09:56:14;;;;;;;18.45;13.45;;;;;;;5.54;71.35;97711.00;1673564;84;25870;-72
2022/11/29 09:58:48;;;;;;;20.52;12.33;;;;;;;5.64;70.51;97716.98;1676489;84;25776;-72
2022/11/29 10:01:35;;;;;;;21.97;14.73;;;;;;;5.79;70.52;97704.55;1620590;87;25778;-72
2022/11/29 10:04:07;;;;;;;19.77;13.62;;;;;;;6.03;70.10;97713.00;1630273;87;28490;-73
2022/11/29 10:06:39;;;;;;;27.20;14.98;;;;;;;6.14;68.75;97705.41;1629062;87;25833;-72
2022/11/29 10:09:22;;;;;;;20.60;14.83;;;;;;;6.28;68.71;97705.66;1628980;87;25950;-72
2022/11/29 10:12:03;;;;;;;22.25;13.90;;;;;;;6.31;68.28;97703.44;1629271;87;25815;-71
2022/11/29 10:14:51;;;;;;;24.90;13.80;;;;;;;6.54;68.29;97700.77;1629117;87;26567;-72
2022/11/29 10:17:52;;;;;;;17.17;11.88;;;;;;;6.77;67.81;97697.56;1630320;87;28178;-73
2022/11/29 10:20:24;;;;;;;19.45;11.70;;;;;;;7.11;67.42;97694.95;1629920;87;25842;-72
2022/11/29 10:23:11;;;;;;;18.55;12.23;;;;;;;7.33;66.63;97694.05;1579149;89;32982;-72
2022/11/29 10:25:48;;;;;;;18.42;11.12;;;;;;;7.57;66.38;97693.78;1532642;91;25915;-72
2022/11/29 10:28:29;;;;;;;18.25;11.93;;;;;;;7.83;65.97;97687.09;1502669;95;25886;-72
2022/11/29 10:31:19;;;;;;;16.93;10.68;;;;;;;8.08;65.31;97687.61;1502704;95;27511;-73
2022/11/29 10:33:47;;;;;;;21.50;11.48;;;;;;;8.35;65.06;97682.03;1502552;95;25821;-73
2022/11/29 10:36:22;;;;;;;17.25;11.63;;;;;;;8.59;64.36;97689.73;1502715;95;25897;-72
2022/11/29 10:38:49;;;;;;;15.88;10.90;;;;;;;8.75;64.02;97682.76;1455724;97;25942;-72
2022/11/29 10:41:21;;;;;;;17.20;10.43;;;;;;;8.97;63.62;97676.33;1454014;97;25868;-73
2022/11/29 10:43:49;;;;;;;16.82;11.50;;;;;;;9.19;62.75;97681.66;1456643;96;27434;-72
2022/11/29 10:46:24;;;;;;;19.27;11.65;;;;;;;9.35;62.49;97677.33;1472742;96;25805;-72
2022/11/29 10:48:52;;;;;;;13.78;9.00;;;;;;;9.52;62.06;97671.97;1458228;98;25933;-72
2022/11/29 10:51:19;;;;;;;20.25;11.40;;;;;;;9.66;61.34;97672.33;1502500;95;25909;-72
2022/11/29 10:53:47;;;;;;;22.40;12.37;;;;;;;9.90;60.91;97663.45;1505624;95;25891;-72
2022/11/29 10:56:21;;;;;;;16.23;10.55;;;;;;;10.03;60.58;97664.83;1505394;95;27412;-72
2022/11/29 10:59:04;;;;;;;12.45;8.75;;;;;;;10.18;60.13;97664.20;1486824;94;25824;-73
2022/11/29 11:01:35;;;;;;;13.20;9.95;;;;;;;10.51;60.41;97659.40;1447212;97;25902;-72
2022/11/29 11:04:06;;;;;;;12.33;8.43;;;;;;;10.92;59.76;97650.63;1486625;95;26423;-74
2022/11/29 11:06:55;;;;;;;12.85;8.38;;;;;;;11.24;59.51;97650.30;1486857;95;25926;-74
2022/11/29 11:09:39;;;;;;;13.25;8.80;;;;;;;11.47;58.76;97651.23;1486602;95;27573;-74
2022/11/29 11:12:17;;;;;;;11.28;8.70;;;;;;;11.72;57.92;97649.99;1486541;95;25676;-74
2022/11/29 11:14:45;;;;;;;11.78;8.38;;;;;;;11.92;56.48;97645.92;1464093;97;25941;-72
2022/11/29 11:17:26;;;;;;;16.00;9.35;;;;;;;11.76;54.68;97645.86;1465239;97;25824;-72
2022/11/29 11:20:22;;;;;;;14.05;9.15;;;;;;;11.53;55.61;97640.91;1465152;97;25852;-72
2022/11/29 11:23:06;;;;;;;15.60;9.88;;;;;;;11.39;54.44;97647.38;1466381;97;28240;-73
2022/11/29 11:25:38;;;;;;;10.68;8.08;;;;;;;11.24;54.71;97646.77;1393526;100;26082;-74
2022/11/29 11:28:19;;;;;;;;;;;;;;;11.16;54.82;97645.95;1441372;98;25897;-73
2022/11/29 11:30:53;;;;;;;12.98;8.65;;;;;;;11.19;53.31;97643.36;1367129;103;26585;-74
2022/11/29 11:33:24;;;;;;;13.38;9.00;;;;;;;11.14;53.70;97642.62;1330123;106;25938;-71
2022/11/29 11:36:14;;;;;;;11.05;8.20;;;;;;;11.10;53.95;97645.97;1357153;104;27446;-72
2022/11/29 11:39:10;;;;;;;13.25;8.83;;;;;;;11.11;54.46;97643.03;1329971;106;25973;-73
2022/11/29 11:44:49;;;;;;;15.63;8.80;;;;;;;11.56;54.08;97640.49;1348801;104;25821;-73
2022/11/29 11:47:20;;;;;;;13.10;9.10;;;;;;;11.68;53.33;97637.44;1376903;102;26041;-74
2022/11/29 11:49:55;;;;;;;12.53;9.23;;;;;;;11.75;52.42;97638.27;1387323;101;28354;-73
2022/11/29 11:52:26;;;;;;;13.50;8.75;;;;;;;11.72;52.23;97640.01;1398436;100;25840;-71
2022/11/29 11:54:57;;;;;;;13.83;9.38;;;;;;;11.61;52.04;97637.96;1411820;100;25888;-72
2022/11/29 11:57:25;;;;;;;14.95;9.90;;;;;;;11.51;52.73;97632.17;1411823;100;26638;-72
2022/11/29 11:59:55;;;;;;;11.73;9.15;;;;;;;11.70;52.98;97629.95;1472905;96;25903;-72
2022/11/29 12:02:30;;;;;;;11.83;8.50;;;;;;;11.85;52.52;97631.88;1505707;92;27452;-73
2022/11/29 12:04:59;;;;;;;12.07;8.45;;;;;;;11.82;52.02;97636.39;1550496;91;25789;-73
2022/11/29 12:07:49;;;;;;;12.07;8.25;;;;;;;11.83;51.78;97631.27;1556188;91;25851;-72
2022/11/29 12:10:26;;;;;;;14.87;8.30;;;;;;;11.77;51.47;97632.13;1570121;91;25803;-73
2022/11/29 12:12:55;;;;;;;11.57;9.00;;;;;;;11.63;51.36;97626.42;1570261;91;25926;-72
2022/11/29 12:15:33;;;;;;;14.10;9.83;;;;;;;11.56;50.95;97629.67;1570155;90;27394;-73
2022/11/29 12:18:17;;;;;;;12.90;9.40;;;;;;;11.39;50.92;97633.86;1570055;89;25830;-72
2022/11/29 12:21:03;;;;;;;11.97;9.05;;;;;;;11.31;51.40;97628.69;1570136;89;25920;-72
2022/11/29 12:23:40;;;;;;;15.25;10.20;;;;;;;11.34;51.29;97630.45;1570081;89;25875;-73